sensor_id;sensor_type;location;lat;lon;timestamp;P1;durP1;ratioP1;P2;durP2;ratioP2
15905;SDS011;8051;50.820;4.884;2023-05-29T00:02:05;23.10;;;21.50;;
15905;SDS011;8051;50.820;4.884;2023-05-29T00:04:32;23.17;;;21.57;;
15905;SDS011;8051;50.820;4.884;2023-05-29T00:07:01;21.97;;;20.37;;
15905;SDS011;8051;50.820;4.884;2023-05-29T00:09:28;24.80;;;22.90;;
15905;SDS011;8051;50.820;4.884;2023-05-29T00:11:56;22.53;;;20.70;;
15905;SDS011;8051;50.820;4.884;2023-05-29T00:14:23;23.93;;;21.87;;
15905;SDS011;8051;50.820;4.884;2023-05-29T00:16:53;21.97;;;20.23;;
15905;SDS011;8051;50.820;4.884;2023-05-29T00:19:22;24.67;;;22.67;;
15905;SDS011;8051;50.820;4.884;2023-05-29T00:21:50;25.00;;;23.10;;
15905;SDS011;8051;50.820;4.884;2023-05-29T00:24:17;25.33;;;23.43;;
15905;SDS011;8051;50.820;4.884;2023-05-29T00:26:46;24.97;;;22.83;;
15905;SDS011;8051;50.820;4.884;2023-05-29T00:29:13;25.67;;;23.53;;
15905;SDS011;8051;50.820;4.884;2023-05-29T00:31:41;25.90;;;23.60;;
15905;SDS011;8051;50.820;4.884;2023-05-29T00:34:09;25.37;;;23.40;;
15905;SDS011;8051;50.820;4.884;2023-05-29T00:36:37;25.97;;;23.83;;
15905;SDS011;8051;50.820;4.884;2023-05-29T00:39:05;26.13;;;24.00;;
15905;SDS011;8051;50.820;4.884;2023-05-29T00:41:32;25.03;;;22.93;;
15905;SDS011;8051;50.820;4.884;2023-05-29T00:44:00;26.73;;;24.43;;
15905;SDS011;8051;50.820;4.884;2023-05-29T00:46:27;25.33;;;23.40;;
15905;SDS011;8051;50.820;4.884;2023-05-29T00:48:55;24.33;;;22.40;;
15905;SDS011;8051;50.820;4.884;2023-05-29T00:51:25;25.07;;;23.10;;
15905;SDS011;8051;50.820;4.884;2023-05-29T00:53:54;25.07;;;22.87;;
15905;SDS011;8051;50.820;4.884;2023-05-29T00:56:23;25.60;;;23.60;;
15905;SDS011;8051;50.820;4.884;2023-05-29T00:58:52;25.47;;;23.30;;
15905;SDS011;8051;50.820;4.884;2023-05-29T01:01:19;24.23;;;22.53;;
15905;SDS011;8051;50.820;4.884;2023-05-29T01:03:48;23.50;;;21.90;;
15905;SDS011;8051;50.820;4.884;2023-05-29T01:06:15;23.97;;;22.43;;
15905;SDS011;8051;50.820;4.884;2023-05-29T01:08:44;25.63;;;23.43;;
15905;SDS011;8051;50.820;4.884;2023-05-29T01:11:12;24.53;;;22.73;;
15905;SDS011;8051;50.820;4.884;2023-05-29T01:13:48;22.93;;;21.20;;
15905;SDS011;8051;50.820;4.884;2023-05-29T01:16:17;21.80;;;20.30;;
15905;SDS011;8051;50.820;4.884;2023-05-29T01:18:54;24.83;;;23.07;;
15905;SDS011;8051;50.820;4.884;2023-05-29T01:21:30;24.40;;;22.37;;
15905;SDS011;8051;50.820;4.884;2023-05-29T01:24:17;25.23;;;22.63;;
15905;SDS011;8051;50.820;4.884;2023-05-29T01:26:54;22.47;;;20.77;;
15905;SDS011;8051;50.820;4.884;2023-05-29T01:29:25;22.70;;;21.03;;
15905;SDS011;8051;50.820;4.884;2023-05-29T01:31:56;24.23;;;22.40;;
15905;SDS011;8051;50.820;4.884;2023-05-29T01:34:24;24.63;;;22.93;;
15905;SDS011;8051;50.820;4.884;2023-05-29T01:36:52;24.17;;;22.50;;
15905;SDS011;8051;50.820;4.884;2023-05-29T01:39:19;21.37;;;19.70;;
15905;SDS011;8051;50.820;4.884;2023-05-29T01:41:47;24.40;;;22.63;;
15905;SDS011;8051;50.820;4.884;2023-05-29T01:44:17;24.97;;;23.07;;
15905;SDS011;8051;50.820;4.884;2023-05-29T01:46:45;23.37;;;21.40;;
15905;SDS011;8051;50.820;4.884;2023-05-29T01:49:13;24.70;;;22.40;;
15905;SDS011;8051;50.820;4.884;2023-05-29T01:51:43;22.97;;;21.17;;
15905;SDS011;8051;50.820;4.884;2023-05-29T01:54:10;24.60;;;22.47;;
15905;SDS011;8051;50.820;4.884;2023-05-29T01:56:38;25.63;;;23.13;;
15905;SDS011;8051;50.820;4.884;2023-05-29T01:59:06;25.20;;;22.97;;
15905;SDS011;8051;50.820;4.884;2023-05-29T02:01:35;25.03;;;23.17;;
15905;SDS011;8051;50.820;4.884;2023-05-29T02:04:05;25.73;;;23.53;;
15905;SDS011;8051;50.820;4.884;2023-05-29T02:06:33;25.60;;;23.23;;
15905;SDS011;8051;50.820;4.884;2023-05-29T02:09:00;24.93;;;22.63;;
15905;SDS011;8051;50.820;4.884;2023-05-29T02:11:28;24.20;;;21.97;;
15905;SDS011;8051;50.820;4.884;2023-05-29T02:13:55;26.30;;;24.03;;
15905;SDS011;8051;50.820;4.884;2023-05-29T02:16:23;25.47;;;23.07;;
15905;SDS011;8051;50.820;4.884;2023-05-29T02:18:54;24.80;;;22.23;;
15905;SDS011;8051;50.820;4.884;2023-05-29T02:21:22;24.60;;;22.50;;
15905;SDS011;8051;50.820;4.884;2023-05-29T02:23:50;24.63;;;22.53;;
15905;SDS011;8051;50.820;4.884;2023-05-29T02:26:17;24.73;;;22.23;;
15905;SDS011;8051;50.820;4.884;2023-05-29T02:28:44;23.70;;;21.60;;
15905;SDS011;8051;50.820;4.884;2023-05-29T02:31:12;24.13;;;21.40;;
15905;SDS011;8051;50.820;4.884;2023-05-29T02:33:39;28.30;;;20.90;;
15905;SDS011;8051;50.820;4.884;2023-05-29T02:36:08;29.47;;;22.40;;
15905;SDS011;8051;50.820;4.884;2023-05-29T02:38:37;24.33;;;22.10;;
15905;SDS011;8051;50.820;4.884;2023-05-29T02:41:05;25.33;;;22.27;;
15905;SDS011;8051;50.820;4.884;2023-05-29T02:43:32;23.87;;;21.43;;
15905;SDS011;8051;50.820;4.884;2023-05-29T02:46:00;22.77;;;20.10;;
15905;SDS011;8051;50.820;4.884;2023-05-29T02:48:27;21.40;;;19.10;;
15905;SDS011;8051;50.820;4.884;2023-05-29T02:50:55;23.10;;;20.90;;
15905;SDS011;8051;50.820;4.884;2023-05-29T02:53:24;26.13;;;20.77;;
15905;SDS011;8051;50.820;4.884;2023-05-29T02:55:51;22.77;;;20.57;;
15905;SDS011;8051;50.820;4.884;2023-05-29T02:58:20;24.67;;;19.63;;
15905;SDS011;8051;50.820;4.884;2023-05-29T03:00:47;22.00;;;20.20;;
15905;SDS011;8051;50.820;4.884;2023-05-29T03:03:15;22.57;;;20.30;;
15905;SDS011;8051;50.820;4.884;2023-05-29T03:05:42;21.90;;;19.80;;
15905;SDS011;8051;50.820;4.884;2023-05-29T03:08:10;24.27;;;20.50;;
15905;SDS011;8051;50.820;4.884;2023-05-29T03:10:39;21.83;;;19.67;;
15905;SDS011;8051;50.820;4.884;2023-05-29T03:13:06;20.80;;;18.63;;
15905;SDS011;8051;50.820;4.884;2023-05-29T03:15:34;21.83;;;19.50;;
15905;SDS011;8051;50.820;4.884;2023-05-29T03:18:01;21.23;;;18.80;;
15905;SDS011;8051;50.820;4.884;2023-05-29T03:20:29;22.20;;;19.87;;
15905;SDS011;8051;50.820;4.884;2023-05-29T03:22:56;24.67;;;19.97;;
15905;SDS011;8051;50.820;4.884;2023-05-29T03:25:25;21.10;;;19.00;;
15905;SDS011;8051;50.820;4.884;2023-05-29T03:27:54;21.03;;;18.87;;
15905;SDS011;8051;50.820;4.884;2023-05-29T03:30:22;20.73;;;18.50;;
15905;SDS011;8051;50.820;4.884;2023-05-29T03:32:49;22.97;;;19.63;;
15905;SDS011;8051;50.820;4.884;2023-05-29T03:35:16;20.60;;;18.70;;
15905;SDS011;8051;50.820;4.884;2023-05-29T03:37:43;19.63;;;16.77;;
15905;SDS011;8051;50.820;4.884;2023-05-29T03:40:11;20.57;;;17.77;;
15905;SDS011;8051;50.820;4.884;2023-05-29T03:42:39;18.27;;;15.90;;
15905;SDS011;8051;50.820;4.884;2023-05-29T03:45:09;20.70;;;16.20;;
15905;SDS011;8051;50.820;4.884;2023-05-29T03:47:36;20.20;;;17.17;;
15905;SDS011;8051;50.820;4.884;2023-05-29T03:50:04;20.90;;;18.30;;
15905;SDS011;8051;50.820;4.884;2023-05-29T03:52:33;22.77;;;18.63;;
15905;SDS011;8051;50.820;4.884;2023-05-29T03:55:01;20.97;;;18.93;;
15905;SDS011;8051;50.820;4.884;2023-05-29T03:57:28;21.40;;;19.20;;
15905;SDS011;8051;50.820;4.884;2023-05-29T03:59:56;20.60;;;18.40;;
15905;SDS011;8051;50.820;4.884;2023-05-29T04:02:25;21.27;;;19.00;;
15905;SDS011;8051;50.820;4.884;2023-05-29T04:04:52;20.97;;;19.17;;
15905;SDS011;8051;50.820;4.884;2023-05-29T04:07:20;19.63;;;17.90;;
15905;SDS011;8051;50.820;4.884;2023-05-29T04:09:48;18.77;;;17.23;;
15905;SDS011;8051;50.820;4.884;2023-05-29T04:12:15;19.30;;;17.40;;
15905;SDS011;8051;50.820;4.884;2023-05-29T04:14:43;24.27;;;17.60;;
15905;SDS011;8051;50.820;4.884;2023-05-29T04:17:10;18.20;;;16.57;;
15905;SDS011;8051;50.820;4.884;2023-05-29T04:19:39;19.07;;;17.20;;
15905;SDS011;8051;50.820;4.884;2023-05-29T04:22:07;16.73;;;14.80;;
15905;SDS011;8051;50.820;4.884;2023-05-29T04:24:34;16.10;;;14.87;;
15905;SDS011;8051;50.820;4.884;2023-05-29T04:27:02;15.97;;;14.57;;
15905;SDS011;8051;50.820;4.884;2023-05-29T04:29:29;15.93;;;14.17;;
15905;SDS011;8051;50.820;4.884;2023-05-29T04:31:57;13.20;;;12.20;;
15905;SDS011;8051;50.820;4.884;2023-05-29T04:34:28;15.77;;;12.43;;
15905;SDS011;8051;50.820;4.884;2023-05-29T04:36:57;16.73;;;12.63;;
15905;SDS011;8051;50.820;4.884;2023-05-29T04:39:25;12.90;;;11.80;;
15905;SDS011;8051;50.820;4.884;2023-05-29T04:41:52;13.47;;;12.00;;
15905;SDS011;8051;50.820;4.884;2023-05-29T04:44:21;13.10;;;11.90;;
15905;SDS011;8051;50.820;4.884;2023-05-29T04:46:51;13.77;;;11.43;;
15905;SDS011;8051;50.820;4.884;2023-05-29T04:49:19;15.60;;;11.77;;
15905;SDS011;8051;50.820;4.884;2023-05-29T04:51:46;13.90;;;11.67;;
15905;SDS011;8051;50.820;4.884;2023-05-29T04:54:19;13.77;;;11.33;;
15905;SDS011;8051;50.820;4.884;2023-05-29T04:56:48;13.37;;;11.63;;
15905;SDS011;8051;50.820;4.884;2023-05-29T04:59:15;14.20;;;13.03;;
15905;SDS011;8051;50.820;4.884;2023-05-29T05:01:43;17.00;;;11.70;;
15905;SDS011;8051;50.820;4.884;2023-05-29T05:04:12;15.37;;;11.23;;
15905;SDS011;8051;50.820;4.884;2023-05-29T05:06:40;11.83;;;10.63;;
15905;SDS011;8051;50.820;4.884;2023-05-29T05:09:09;19.60;;;11.80;;
15905;SDS011;8051;50.820;4.884;2023-05-29T05:11:38;16.43;;;10.60;;
15905;SDS011;8051;50.820;4.884;2023-05-29T05:14:05;12.13;;;10.73;;
15905;SDS011;8051;50.820;4.884;2023-05-29T05:16:32;12.43;;;11.27;;
15905;SDS011;8051;50.820;4.884;2023-05-29T05:19:00;14.10;;;12.13;;
15905;SDS011;8051;50.820;4.884;2023-05-29T05:21:27;21.47;;;11.90;;
15905;SDS011;8051;50.820;4.884;2023-05-29T05:23:56;16.53;;;12.23;;
15905;SDS011;8051;50.820;4.884;2023-05-29T05:26:24;18.87;;;13.43;;
15905;SDS011;8051;50.820;4.884;2023-05-29T05:28:54;13.07;;;11.90;;
15905;SDS011;8051;50.820;4.884;2023-05-29T05:31:21;17.07;;;12.53;;
15905;SDS011;8051;50.820;4.884;2023-05-29T05:33:49;19.40;;;15.20;;
15905;SDS011;8051;50.820;4.884;2023-05-29T05:36:17;15.53;;;13.90;;
15905;SDS011;8051;50.820;4.884;2023-05-29T05:38:44;15.87;;;14.10;;
15905;SDS011;8051;50.820;4.884;2023-05-29T05:41:12;14.97;;;13.50;;
15905;SDS011;8051;50.820;4.884;2023-05-29T05:43:39;15.37;;;13.90;;
15905;SDS011;8051;50.820;4.884;2023-05-29T05:46:08;16.23;;;13.33;;
15905;SDS011;8051;50.820;4.884;2023-05-29T05:48:37;15.20;;;13.80;;
15905;SDS011;8051;50.820;4.884;2023-05-29T05:51:06;14.40;;;13.13;;
15905;SDS011;8051;50.820;4.884;2023-05-29T05:53:33;15.73;;;13.97;;
15905;SDS011;8051;50.820;4.884;2023-05-29T05:56:01;15.50;;;13.57;;
15905;SDS011;8051;50.820;4.884;2023-05-29T05:58:29;15.17;;;13.33;;
15905;SDS011;8051;50.820;4.884;2023-05-29T06:00:56;16.50;;;14.80;;
15905;SDS011;8051;50.820;4.884;2023-05-29T06:03:25;15.37;;;14.00;;
15905;SDS011;8051;50.820;4.884;2023-05-29T06:05:52;17.60;;;14.43;;
15905;SDS011;8051;50.820;4.884;2023-05-29T06:08:20;16.50;;;15.00;;
15905;SDS011;8051;50.820;4.884;2023-05-29T06:10:47;16.37;;;14.67;;
15905;SDS011;8051;50.820;4.884;2023-05-29T06:13:15;15.33;;;13.73;;
15905;SDS011;8051;50.820;4.884;2023-05-29T06:15:43;16.93;;;15.17;;
15905;SDS011;8051;50.820;4.884;2023-05-29T06:18:11;16.83;;;15.20;;
15905;SDS011;8051;50.820;4.884;2023-05-29T06:20:40;18.03;;;14.53;;
15905;SDS011;8051;50.820;4.884;2023-05-29T06:23:07;16.80;;;15.23;;
15905;SDS011;8051;50.820;4.884;2023-05-29T06:25:35;18.10;;;16.53;;
15905;SDS011;8051;50.820;4.884;2023-05-29T06:28:03;18.87;;;17.30;;
15905;SDS011;8051;50.820;4.884;2023-05-29T06:30:32;20.07;;;18.43;;
15905;SDS011;8051;50.820;4.884;2023-05-29T06:32:59;19.93;;;18.07;;
15905;SDS011;8051;50.820;4.884;2023-05-29T06:35:27;21.07;;;19.03;;
15905;SDS011;8051;50.820;4.884;2023-05-29T06:37:56;16.77;;;15.30;;
15905;SDS011;8051;50.820;4.884;2023-05-29T06:40:23;20.10;;;18.23;;
15905;SDS011;8051;50.820;4.884;2023-05-29T06:42:51;20.30;;;18.10;;
15905;SDS011;8051;50.820;4.884;2023-05-29T06:45:18;19.63;;;18.03;;
15905;SDS011;8051;50.820;4.884;2023-05-29T06:47:46;18.43;;;17.10;;
15905;SDS011;8051;50.820;4.884;2023-05-29T06:50:13;20.87;;;17.67;;
15905;SDS011;8051;50.820;4.884;2023-05-29T06:52:41;20.23;;;18.43;;
15905;SDS011;8051;50.820;4.884;2023-05-29T06:55:10;18.93;;;16.90;;
15905;SDS011;8051;50.820;4.884;2023-05-29T06:57:37;19.17;;;17.60;;
15905;SDS011;8051;50.820;4.884;2023-05-29T07:00:05;22.37;;;17.43;;
15905;SDS011;8051;50.820;4.884;2023-05-29T07:02:34;19.60;;;17.03;;
15905;SDS011;8051;50.820;4.884;2023-05-29T07:05:01;18.37;;;16.43;;
15905;SDS011;8051;50.820;4.884;2023-05-29T07:07:30;19.10;;;17.33;;
15905;SDS011;8051;50.820;4.884;2023-05-29T07:09:57;19.80;;;17.57;;
15905;SDS011;8051;50.820;4.884;2023-05-29T07:12:26;19.83;;;17.83;;
15905;SDS011;8051;50.820;4.884;2023-05-29T07:14:54;22.43;;;17.90;;
15905;SDS011;8051;50.820;4.884;2023-05-29T07:17:21;18.03;;;16.30;;
15905;SDS011;8051;50.820;4.884;2023-05-29T07:19:49;19.83;;;17.67;;
15905;SDS011;8051;50.820;4.884;2023-05-29T07:22:16;19.97;;;17.60;;
15905;SDS011;8051;50.820;4.884;2023-05-29T07:24:45;26.63;;;18.60;;
15905;SDS011;8051;50.820;4.884;2023-05-29T07:27:16;19.83;;;17.90;;
15905;SDS011;8051;50.820;4.884;2023-05-29T07:29:46;19.87;;;18.07;;
15905;SDS011;8051;50.820;4.884;2023-05-29T07:32:13;20.63;;;17.60;;
15905;SDS011;8051;50.820;4.884;2023-05-29T07:34:42;19.87;;;17.90;;
15905;SDS011;8051;50.820;4.884;2023-05-29T07:37:09;19.47;;;16.73;;
15905;SDS011;8051;50.820;4.884;2023-05-29T07:39:38;19.27;;;17.67;;
15905;SDS011;8051;50.820;4.884;2023-05-29T07:42:05;18.67;;;17.00;;
15905;SDS011;8051;50.820;4.884;2023-05-29T07:44:33;21.03;;;17.07;;
15905;SDS011;8051;50.820;4.884;2023-05-29T07:47:02;20.00;;;16.63;;
15905;SDS011;8051;50.820;4.884;2023-05-29T07:49:30;17.70;;;16.17;;
15905;SDS011;8051;50.820;4.884;2023-05-29T07:51:58;26.47;;;16.63;;
15905;SDS011;8051;50.820;4.884;2023-05-29T07:54:25;17.93;;;16.23;;
15905;SDS011;8051;50.820;4.884;2023-05-29T07:56:53;20.03;;;18.07;;
15905;SDS011;8051;50.820;4.884;2023-05-29T07:59:21;20.10;;;15.63;;
15905;SDS011;8051;50.820;4.884;2023-05-29T08:01:48;18.40;;;16.57;;
15905;SDS011;8051;50.820;4.884;2023-05-29T08:04:17;18.00;;;15.47;;
15905;SDS011;8051;50.820;4.884;2023-05-29T08:06:44;17.13;;;15.47;;
15905;SDS011;8051;50.820;4.884;2023-05-29T08:09:12;20.53;;;17.77;;
15905;SDS011;8051;50.820;4.884;2023-05-29T08:11:39;15.87;;;14.60;;
15905;SDS011;8051;50.820;4.884;2023-05-29T08:14:07;18.27;;;15.63;;
15905;SDS011;8051;50.820;4.884;2023-05-29T08:16:35;16.90;;;15.43;;
15905;SDS011;8051;50.820;4.884;2023-05-29T08:19:02;19.30;;;16.47;;
15905;SDS011;8051;50.820;4.884;2023-05-29T08:21:31;17.40;;;15.67;;
15905;SDS011;8051;50.820;4.884;2023-05-29T08:23:59;17.60;;;15.60;;
15905;SDS011;8051;50.820;4.884;2023-05-29T08:26:30;19.10;;;15.63;;
15905;SDS011;8051;50.820;4.884;2023-05-29T08:28:57;16.77;;;15.47;;
15905;SDS011;8051;50.820;4.884;2023-05-29T08:31:25;17.80;;;16.30;;
15905;SDS011;8051;50.820;4.884;2023-05-29T08:33:52;16.40;;;14.73;;
15905;SDS011;8051;50.820;4.884;2023-05-29T08:36:20;17.87;;;16.17;;
15905;SDS011;8051;50.820;4.884;2023-05-29T08:38:49;20.03;;;14.93;;
15905;SDS011;8051;50.820;4.884;2023-05-29T08:41:17;16.10;;;14.50;;
15905;SDS011;8051;50.820;4.884;2023-05-29T08:43:50;17.70;;;15.50;;
15905;SDS011;8051;50.820;4.884;2023-05-29T08:46:18;17.00;;;15.50;;
15905;SDS011;8051;50.820;4.884;2023-05-29T08:48:49;17.63;;;15.80;;
15905;SDS011;8051;50.820;4.884;2023-05-29T08:51:20;18.40;;;16.50;;
15905;SDS011;8051;50.820;4.884;2023-05-29T08:53:57;17.80;;;15.67;;
15905;SDS011;8051;50.820;4.884;2023-05-29T08:56:25;17.63;;;15.90;;
15905;SDS011;8051;50.820;4.884;2023-05-29T08:58:53;15.07;;;13.53;;
15905;SDS011;8051;50.820;4.884;2023-05-29T09:01:21;18.10;;;16.40;;
15905;SDS011;8051;50.820;4.884;2023-05-29T09:03:49;17.97;;;15.63;;
15905;SDS011;8051;50.820;4.884;2023-05-29T09:06:17;17.93;;;15.57;;
15905;SDS011;8051;50.820;4.884;2023-05-29T09:08:46;17.37;;;15.67;;
15905;SDS011;8051;50.820;4.884;2023-05-29T09:11:15;18.57;;;17.07;;
15905;SDS011;8051;50.820;4.884;2023-05-29T09:13:42;20.53;;;16.33;;
15905;SDS011;8051;50.820;4.884;2023-05-29T09:16:10;16.87;;;15.40;;
15905;SDS011;8051;50.820;4.884;2023-05-29T09:18:38;16.53;;;15.03;;
15905;SDS011;8051;50.820;4.884;2023-05-29T09:21:07;17.37;;;16.00;;
15905;SDS011;8051;50.820;4.884;2023-05-29T09:23:35;17.97;;;16.17;;
15905;SDS011;8051;50.820;4.884;2023-05-29T09:26:02;16.93;;;14.93;;
15905;SDS011;8051;50.820;4.884;2023-05-29T09:28:31;17.57;;;15.73;;
15905;SDS011;8051;50.820;4.884;2023-05-29T09:30:59;16.93;;;15.17;;
15905;SDS011;8051;50.820;4.884;2023-05-29T09:33:27;20.07;;;15.17;;
15905;SDS011;8051;50.820;4.884;2023-05-29T09:35:54;17.77;;;15.30;;
15905;SDS011;8051;50.820;4.884;2023-05-29T09:38:21;23.33;;;15.87;;
15905;SDS011;8051;50.820;4.884;2023-05-29T09:40:49;19.50;;;15.67;;
15905;SDS011;8051;50.820;4.884;2023-05-29T09:43:20;17.70;;;15.90;;
15905;SDS011;8051;50.820;4.884;2023-05-29T09:45:50;19.90;;;15.80;;
15905;SDS011;8051;50.820;4.884;2023-05-29T09:48:18;16.87;;;15.27;;
15905;SDS011;8051;50.820;4.884;2023-05-29T09:50:50;17.47;;;15.60;;
15905;SDS011;8051;50.820;4.884;2023-05-29T09:53:20;17.77;;;15.90;;
15905;SDS011;8051;50.820;4.884;2023-05-29T09:55:49;16.57;;;14.97;;
15905;SDS011;8051;50.820;4.884;2023-05-29T09:58:18;16.80;;;15.27;;
15905;SDS011;8051;50.820;4.884;2023-05-29T10:00:46;20.10;;;15.67;;
15905;SDS011;8051;50.820;4.884;2023-05-29T10:03:15;17.40;;;15.30;;
15905;SDS011;8051;50.820;4.884;2023-05-29T10:05:44;17.13;;;13.57;;
15905;SDS011;8051;50.820;4.884;2023-05-29T10:08:18;15.80;;;14.33;;
15905;SDS011;8051;50.820;4.884;2023-05-29T10:10:48;18.37;;;15.47;;
15905;SDS011;8051;50.820;4.884;2023-05-29T10:13:22;16.10;;;14.90;;
15905;SDS011;8051;50.820;4.884;2023-05-29T10:15:54;17.07;;;15.30;;
15905;SDS011;8051;50.820;4.884;2023-05-29T10:18:25;16.10;;;14.27;;
15905;SDS011;8051;50.820;4.884;2023-05-29T10:20:58;19.80;;;14.33;;
15905;SDS011;8051;50.820;4.884;2023-05-29T10:23:28;16.10;;;14.67;;
15905;SDS011;8051;50.820;4.884;2023-05-29T10:25:57;15.47;;;13.90;;
15905;SDS011;8051;50.820;4.884;2023-05-29T10:28:32;15.50;;;14.00;;
15905;SDS011;8051;50.820;4.884;2023-05-29T10:31:03;16.20;;;14.07;;
15905;SDS011;8051;50.820;4.884;2023-05-29T10:33:44;14.17;;;12.93;;
15905;SDS011;8051;50.820;4.884;2023-05-29T10:36:25;15.33;;;13.67;;
15905;SDS011;8051;50.820;4.884;2023-05-29T10:38:57;19.67;;;13.37;;
15905;SDS011;8051;50.820;4.884;2023-05-29T10:41:29;17.17;;;12.73;;
15905;SDS011;8051;50.820;4.884;2023-05-29T10:43:58;21.67;;;12.03;;
15905;SDS011;8051;50.820;4.884;2023-05-29T10:49:29;14.53;;;13.03;;
15905;SDS011;8051;50.820;4.884;2023-05-29T10:51:57;13.13;;;11.17;;
15905;SDS011;8051;50.820;4.884;2023-05-29T10:54:25;14.13;;;12.27;;
15905;SDS011;8051;50.820;4.884;2023-05-29T10:56:55;15.03;;;12.03;;
15905;SDS011;8051;50.820;4.884;2023-05-29T10:59:23;12.30;;;11.30;;
15905;SDS011;8051;50.820;4.884;2023-05-29T11:01:53;15.27;;;12.03;;
15905;SDS011;8051;50.820;4.884;2023-05-29T11:04:25;12.23;;;11.03;;
15905;SDS011;8051;50.820;4.884;2023-05-29T11:06:57;13.70;;;12.30;;
15905;SDS011;8051;50.820;4.884;2023-05-29T11:09:26;14.43;;;11.20;;
15905;SDS011;8051;50.820;4.884;2023-05-29T11:12:13;12.57;;;11.27;;
15905;SDS011;8051;50.820;4.884;2023-05-29T11:15:01;13.33;;;11.93;;
15905;SDS011;8051;50.820;4.884;2023-05-29T11:17:31;12.27;;;11.00;;
15905;SDS011;8051;50.820;4.884;2023-05-29T11:20:03;12.23;;;10.93;;
15905;SDS011;8051;50.820;4.884;2023-05-29T11:22:45;11.73;;;10.53;;
15905;SDS011;8051;50.820;4.884;2023-05-29T11:25:23;13.57;;;10.00;;
15905;SDS011;8051;50.820;4.884;2023-05-29T11:27:50;12.40;;;10.23;;
15905;SDS011;8051;50.820;4.884;2023-05-29T11:30:18;12.53;;;10.40;;
15905;SDS011;8051;50.820;4.884;2023-05-29T11:32:46;14.43;;;10.23;;
15905;SDS011;8051;50.820;4.884;2023-05-29T11:35:14;16.93;;;9.40;;
15905;SDS011;8051;50.820;4.884;2023-05-29T11:37:45;12.80;;;9.90;;
15905;SDS011;8051;50.820;4.884;2023-05-29T11:40:13;12.40;;;9.90;;
15905;SDS011;8051;50.820;4.884;2023-05-29T11:42:41;12.13;;;9.50;;
15905;SDS011;8051;50.820;4.884;2023-05-29T11:45:11;13.20;;;9.87;;
15905;SDS011;8051;50.820;4.884;2023-05-29T11:47:52;10.80;;;9.70;;
15905;SDS011;8051;50.820;4.884;2023-05-29T11:50:20;12.63;;;9.43;;
15905;SDS011;8051;50.820;4.884;2023-05-29T11:52:50;13.10;;;10.90;;
15905;SDS011;8051;50.820;4.884;2023-05-29T11:55:18;14.40;;;8.97;;
15905;SDS011;8051;50.820;4.884;2023-05-29T11:57:46;11.33;;;10.30;;
15905;SDS011;8051;50.820;4.884;2023-05-29T12:00:14;9.97;;;9.10;;
15905;SDS011;8051;50.820;4.884;2023-05-29T12:02:44;10.47;;;9.37;;
15905;SDS011;8051;50.820;4.884;2023-05-29T12:05:12;12.57;;;9.90;;
15905;SDS011;8051;50.820;4.884;2023-05-29T12:07:46;10.90;;;9.60;;
15905;SDS011;8051;50.820;4.884;2023-05-29T12:10:16;10.97;;;8.63;;
15905;SDS011;8051;50.820;4.884;2023-05-29T12:12:49;9.47;;;8.53;;
15905;SDS011;8051;50.820;4.884;2023-05-29T12:15:17;11.47;;;10.47;;
15905;SDS011;8051;50.820;4.884;2023-05-29T12:17:47;10.60;;;9.67;;
15905;SDS011;8051;50.820;4.884;2023-05-29T12:20:15;11.43;;;9.30;;
15905;SDS011;8051;50.820;4.884;2023-05-29T12:22:44;14.50;;;9.20;;
15905;SDS011;8051;50.820;4.884;2023-05-29T12:25:12;9.87;;;8.70;;
15905;SDS011;8051;50.820;4.884;2023-05-29T12:27:43;9.93;;;9.03;;
15905;SDS011;8051;50.820;4.884;2023-05-29T12:30:12;16.07;;;9.70;;
15905;SDS011;8051;50.820;4.884;2023-05-29T12:32:41;9.17;;;8.47;;
15905;SDS011;8051;50.820;4.884;2023-05-29T12:35:10;14.23;;;9.30;;
15905;SDS011;8051;50.820;4.884;2023-05-29T12:37:42;10.70;;;9.50;;
15905;SDS011;8051;50.820;4.884;2023-05-29T12:40:11;10.77;;;9.40;;
15905;SDS011;8051;50.820;4.884;2023-05-29T12:42:43;12.50;;;8.33;;
15905;SDS011;8051;50.820;4.884;2023-05-29T12:45:10;10.30;;;9.27;;
15905;SDS011;8051;50.820;4.884;2023-05-29T12:47:44;10.07;;;9.00;;
15905;SDS011;8051;50.820;4.884;2023-05-29T12:50:19;13.93;;;8.47;;
15905;SDS011;8051;50.820;4.884;2023-05-29T12:52:55;10.87;;;9.57;;
15905;SDS011;8051;50.820;4.884;2023-05-29T12:55:23;10.97;;;9.87;;
15905;SDS011;8051;50.820;4.884;2023-05-29T12:57:53;10.70;;;9.60;;
15905;SDS011;8051;50.820;4.884;2023-05-29T13:00:20;13.27;;;11.90;;
15905;SDS011;8051;50.820;4.884;2023-05-29T13:02:49;11.13;;;9.83;;
15905;SDS011;8051;50.820;4.884;2023-05-29T13:05:16;10.43;;;9.50;;
15905;SDS011;8051;50.820;4.884;2023-05-29T13:07:48;10.60;;;9.60;;
15905;SDS011;8051;50.820;4.884;2023-05-29T13:10:16;10.63;;;9.53;;
15905;SDS011;8051;50.820;4.884;2023-05-29T13:12:43;11.07;;;9.97;;
15905;SDS011;8051;50.820;4.884;2023-05-29T13:15:13;10.33;;;9.33;;
15905;SDS011;8051;50.820;4.884;2023-05-29T13:17:43;13.20;;;10.30;;
15905;SDS011;8051;50.820;4.884;2023-05-29T13:20:11;10.83;;;9.70;;
15905;SDS011;8051;50.820;4.884;2023-05-29T13:22:39;11.47;;;9.90;;
15905;SDS011;8051;50.820;4.884;2023-05-29T13:25:08;11.60;;;10.57;;
15905;SDS011;8051;50.820;4.884;2023-05-29T13:27:37;11.00;;;9.83;;
15905;SDS011;8051;50.820;4.884;2023-05-29T13:30:07;11.27;;;10.10;;
15905;SDS011;8051;50.820;4.884;2023-05-29T13:32:37;13.33;;;10.17;;
15905;SDS011;8051;50.820;4.884;2023-05-29T13:35:05;12.87;;;11.53;;
15905;SDS011;8051;50.820;4.884;2023-05-29T13:37:33;10.30;;;9.20;;
15905;SDS011;8051;50.820;4.884;2023-05-29T13:40:02;10.63;;;9.67;;
15905;SDS011;8051;50.820;4.884;2023-05-29T13:42:30;10.70;;;9.50;;
15905;SDS011;8051;50.820;4.884;2023-05-29T13:44:57;13.43;;;10.50;;
15905;SDS011;8051;50.820;4.884;2023-05-29T13:47:25;10.87;;;9.70;;
15905;SDS011;8051;50.820;4.884;2023-05-29T13:49:55;12.37;;;9.83;;
15905;SDS011;8051;50.820;4.884;2023-05-29T13:52:22;12.00;;;10.03;;
15905;SDS011;8051;50.820;4.884;2023-05-29T13:54:50;12.30;;;11.07;;
15905;SDS011;8051;50.820;4.884;2023-05-29T13:57:18;11.70;;;10.17;;
15905;SDS011;8051;50.820;4.884;2023-05-29T13:59:45;12.90;;;12.03;;
15905;SDS011;8051;50.820;4.884;2023-05-29T14:02:13;10.93;;;9.93;;
15905;SDS011;8051;50.820;4.884;2023-05-29T14:04:40;12.13;;;11.00;;
15905;SDS011;8051;50.820;4.884;2023-05-29T14:07:10;12.03;;;10.70;;
15905;SDS011;8051;50.820;4.884;2023-05-29T14:09:37;12.60;;;11.43;;
15905;SDS011;8051;50.820;4.884;2023-05-29T14:12:05;11.43;;;10.40;;
15905;SDS011;8051;50.820;4.884;2023-05-29T14:14:33;11.07;;;10.00;;
15905;SDS011;8051;50.820;4.884;2023-05-29T14:17:01;11.03;;;9.97;;
15905;SDS011;8051;50.820;4.884;2023-05-29T14:19:30;10.47;;;9.63;;
15905;SDS011;8051;50.820;4.884;2023-05-29T14:21:57;13.00;;;10.27;;
15905;SDS011;8051;50.820;4.884;2023-05-29T14:24:27;10.43;;;9.50;;
15905;SDS011;8051;50.820;4.884;2023-05-29T14:26:55;10.73;;;9.77;;
15905;SDS011;8051;50.820;4.884;2023-05-29T14:29:22;10.23;;;9.33;;
15905;SDS011;8051;50.820;4.884;2023-05-29T14:31:50;10.67;;;9.57;;
15905;SDS011;8051;50.820;4.884;2023-05-29T14:34:18;13.40;;;10.30;;
15905;SDS011;8051;50.820;4.884;2023-05-29T14:36:45;11.20;;;10.07;;
15905;SDS011;8051;50.820;4.884;2023-05-29T14:39:13;11.03;;;10.13;;
15905;SDS011;8051;50.820;4.884;2023-05-29T14:41:41;10.53;;;9.53;;
15905;SDS011;8051;50.820;4.884;2023-05-29T14:44:09;10.77;;;9.63;;
15905;SDS011;8051;50.820;4.884;2023-05-29T14:46:37;10.73;;;9.63;;
15905;SDS011;8051;50.820;4.884;2023-05-29T14:49:05;10.13;;;9.07;;